Terminal Aerodrome Forecast
Issued by NWS

Home | Current Version | Previous Version | Text Only | Print | Product List | Glossary On
Versions: 1 2 3 4 5 6 7 8 9 10 11 12 13 14 15 16 17 18 19 20 21 22 23 24
000
FTUS41 KBGM 231700
TAFRME
TAF
KRME 231731Z 2318/2418 13006KT P6SM SCT025 BKN035
     FM240100 VRB03KT P6SM SCT040
     FM240900 00000KT 2SM BR SCT007
     FM241300 28005KT P6SM BKN030=

USA.gov is the U.S. government's official web portal to all federal, state and local government web resources and services.